sensor_id;sensor_type;location;lat;lon;timestamp;P1;durP1;ratioP1;P2;durP2;ratioP2
13071;SDS011;6602;58.934;11.166;2023-03-11T00:03:35;1.33;;;1.07;;
13071;SDS011;6602;58.934;11.166;2023-03-11T00:08:42;2.83;;;1.47;;
13071;SDS011;6602;58.934;11.166;2023-03-11T00:13:43;2.97;;;1.40;;
13071;SDS011;6602;58.934;11.166;2023-03-11T00:18:44;3.23;;;1.60;;
13071;SDS011;6602;58.934;11.166;2023-03-11T00:23:49;4.93;;;1.43;;
13071;SDS011;6602;58.934;11.166;2023-03-11T00:28:49;4.30;;;1.83;;
13071;SDS011;6602;58.934;11.166;2023-03-11T00:33:53;4.63;;;2.00;;
13071;SDS011;6602;58.934;11.166;2023-03-11T00:38:56;2.40;;;1.60;;
13071;SDS011;6602;58.934;11.166;2023-03-11T00:44:00;5.60;;;1.77;;
13071;SDS011;6602;58.934;11.166;2023-03-11T00:49:03;7.93;;;1.90;;
13071;SDS011;6602;58.934;11.166;2023-03-11T00:54:07;3.60;;;1.73;;
13071;SDS011;6602;58.934;11.166;2023-03-11T00:59:08;1.57;;;1.17;;
13071;SDS011;6602;58.934;11.166;2023-03-11T01:04:09;4.13;;;1.47;;
13071;SDS011;6602;58.934;11.166;2023-03-11T01:09:13;3.47;;;1.60;;
13071;SDS011;6602;58.934;11.166;2023-03-11T01:14:14;2.07;;;1.43;;
13071;SDS011;6602;58.934;11.166;2023-03-11T01:19:18;1.80;;;1.33;;
13071;SDS011;6602;58.934;11.166;2023-03-11T01:24:21;3.30;;;1.53;;
13071;SDS011;6602;58.934;11.166;2023-03-11T01:29:22;4.87;;;1.50;;
13071;SDS011;6602;58.934;11.166;2023-03-11T01:34:26;1.80;;;1.17;;
13071;SDS011;6602;58.934;11.166;2023-03-11T01:39:27;1.77;;;1.30;;
13071;SDS011;6602;58.934;11.166;2023-03-11T01:44:31;2.13;;;1.20;;
13071;SDS011;6602;58.934;11.166;2023-03-11T01:49:32;1.77;;;1.23;;
13071;SDS011;6602;58.934;11.166;2023-03-11T01:54:37;3.43;;;1.33;;
13071;SDS011;6602;58.934;11.166;2023-03-11T01:59:41;1.47;;;1.00;;
13071;SDS011;6602;58.934;11.166;2023-03-11T02:04:51;1.53;;;0.93;;
13071;SDS011;6602;58.934;11.166;2023-03-11T02:09:53;2.43;;;1.37;;
13071;SDS011;6602;58.934;11.166;2023-03-11T02:14:54;1.70;;;1.30;;
13071;SDS011;6602;58.934;11.166;2023-03-11T02:20:04;1.60;;;1.43;;
13071;SDS011;6602;58.934;11.166;2023-03-11T02:25:22;2.77;;;1.40;;
13071;SDS011;6602;58.934;11.166;2023-03-11T02:30:31;2.60;;;1.20;;
13071;SDS011;6602;58.934;11.166;2023-03-11T02:35:35;2.50;;;1.53;;
13071;SDS011;6602;58.934;11.166;2023-03-11T02:45:48;1.80;;;1.00;;
13071;SDS011;6602;58.934;11.166;2023-03-11T02:50:59;5.60;;;1.23;;
13071;SDS011;6602;58.934;11.166;2023-03-11T02:56:00;1.93;;;1.40;;
13071;SDS011;6602;58.934;11.166;2023-03-11T03:01:03;2.67;;;1.10;;
13071;SDS011;6602;58.934;11.166;2023-03-11T03:06:10;2.17;;;1.07;;
13071;SDS011;6602;58.934;11.166;2023-03-11T03:11:11;2.37;;;0.90;;
13071;SDS011;6602;58.934;11.166;2023-03-11T03:16:22;4.03;;;1.50;;
13071;SDS011;6602;58.934;11.166;2023-03-11T03:21:23;1.37;;;1.00;;
13071;SDS011;6602;58.934;11.166;2023-03-11T03:26:24;3.00;;;1.27;;
13071;SDS011;6602;58.934;11.166;2023-03-11T03:31:25;2.10;;;1.33;;
13071;SDS011;6602;58.934;11.166;2023-03-11T03:36:25;2.23;;;1.37;;
13071;SDS011;6602;58.934;11.166;2023-03-11T03:41:31;2.43;;;1.50;;
13071;SDS011;6602;58.934;11.166;2023-03-11T03:46:32;6.27;;;1.90;;
13071;SDS011;6602;58.934;11.166;2023-03-11T03:51:35;2.20;;;1.07;;
13071;SDS011;6602;58.934;11.166;2023-03-11T03:56:36;2.00;;;1.30;;
13071;SDS011;6602;58.934;11.166;2023-03-11T04:01:38;3.50;;;1.10;;
13071;SDS011;6602;58.934;11.166;2023-03-11T04:06:39;3.17;;;1.30;;
13071;SDS011;6602;58.934;11.166;2023-03-11T04:11:40;2.37;;;1.07;;
13071;SDS011;6602;58.934;11.166;2023-03-11T04:16:44;0.67;;;0.67;;
13071;SDS011;6602;58.934;11.166;2023-03-11T04:21:45;1.00;;;0.80;;
13071;SDS011;6602;58.934;11.166;2023-03-11T04:26:46;1.93;;;0.97;;
13071;SDS011;6602;58.934;11.166;2023-03-11T04:31:47;1.50;;;0.93;;
13071;SDS011;6602;58.934;11.166;2023-03-11T04:36:52;1.87;;;1.00;;
13071;SDS011;6602;58.934;11.166;2023-03-11T04:41:53;2.33;;;1.00;;
13071;SDS011;6602;58.934;11.166;2023-03-11T04:46:55;1.63;;;0.90;;
13071;SDS011;6602;58.934;11.166;2023-03-11T04:51:59;1.60;;;0.83;;
13071;SDS011;6602;58.934;11.166;2023-03-11T04:57:00;1.97;;;1.33;;
13071;SDS011;6602;58.934;11.166;2023-03-11T05:02:02;1.10;;;0.87;;
13071;SDS011;6602;58.934;11.166;2023-03-11T05:07:03;1.93;;;1.40;;
13071;SDS011;6602;58.934;11.166;2023-03-11T05:12:04;0.90;;;0.80;;
13071;SDS011;6602;58.934;11.166;2023-03-11T05:17:09;2.87;;;1.40;;
13071;SDS011;6602;58.934;11.166;2023-03-11T05:22:12;1.63;;;1.20;;
13071;SDS011;6602;58.934;11.166;2023-03-11T05:27:19;4.13;;;1.47;;
13071;SDS011;6602;58.934;11.166;2023-03-11T05:32:23;1.53;;;1.30;;
13071;SDS011;6602;58.934;11.166;2023-03-11T05:37:27;1.60;;;1.20;;
13071;SDS011;6602;58.934;11.166;2023-03-11T05:42:34;2.23;;;1.63;;
13071;SDS011;6602;58.934;11.166;2023-03-11T05:47:35;1.67;;;1.17;;
13071;SDS011;6602;58.934;11.166;2023-03-11T05:52:39;2.40;;;1.33;;
13071;SDS011;6602;58.934;11.166;2023-03-11T05:57:41;0.57;;;0.50;;
13071;SDS011;6602;58.934;11.166;2023-03-11T06:02:45;2.27;;;1.47;;
13071;SDS011;6602;58.934;11.166;2023-03-11T06:07:46;5.17;;;2.23;;
13071;SDS011;6602;58.934;11.166;2023-03-11T06:12:51;1.13;;;0.90;;
13071;SDS011;6602;58.934;11.166;2023-03-11T06:17:52;1.97;;;1.00;;
13071;SDS011;6602;58.934;11.166;2023-03-11T06:22:56;1.90;;;0.93;;
13071;SDS011;6602;58.934;11.166;2023-03-11T06:27:59;2.70;;;1.50;;
13071;SDS011;6602;58.934;11.166;2023-03-11T06:33:00;2.13;;;1.17;;
13071;SDS011;6602;58.934;11.166;2023-03-11T06:38:04;1.53;;;1.20;;
13071;SDS011;6602;58.934;11.166;2023-03-11T06:43:06;3.17;;;1.63;;
13071;SDS011;6602;58.934;11.166;2023-03-11T06:48:09;3.17;;;1.43;;
13071;SDS011;6602;58.934;11.166;2023-03-11T06:53:11;1.80;;;1.20;;
13071;SDS011;6602;58.934;11.166;2023-03-11T06:58:15;2.03;;;1.30;;
13071;SDS011;6602;58.934;11.166;2023-03-11T07:03:19;2.93;;;1.97;;
13071;SDS011;6602;58.934;11.166;2023-03-11T07:08:20;4.80;;;2.10;;
13071;SDS011;6602;58.934;11.166;2023-03-11T07:13:23;5.17;;;1.80;;
13071;SDS011;6602;58.934;11.166;2023-03-11T07:18:24;3.23;;;1.50;;
13071;SDS011;6602;58.934;11.166;2023-03-11T07:23:31;5.07;;;2.30;;
13071;SDS011;6602;58.934;11.166;2023-03-11T07:28:35;2.30;;;1.50;;
13071;SDS011;6602;58.934;11.166;2023-03-11T07:33:39;1.70;;;0.80;;
13071;SDS011;6602;58.934;11.166;2023-03-11T07:38:43;6.13;;;2.03;;
13071;SDS011;6602;58.934;11.166;2023-03-11T07:43:47;2.50;;;1.40;;
13071;SDS011;6602;58.934;11.166;2023-03-11T07:48:52;4.03;;;1.70;;
13071;SDS011;6602;58.934;11.166;2023-03-11T07:54:00;4.10;;;1.70;;
13071;SDS011;6602;58.934;11.166;2023-03-11T07:59:08;4.90;;;2.30;;
13071;SDS011;6602;58.934;11.166;2023-03-11T08:04:10;8.27;;;3.70;;
13071;SDS011;6602;58.934;11.166;2023-03-11T08:09:14;2.87;;;1.70;;
13071;SDS011;6602;58.934;11.166;2023-03-11T08:14:29;1.53;;;0.93;;
13071;SDS011;6602;58.934;11.166;2023-03-11T08:19:50;1.13;;;0.67;;
13071;SDS011;6602;58.934;11.166;2023-03-11T08:24:51;0.80;;;0.60;;
13071;SDS011;6602;58.934;11.166;2023-03-11T08:29:52;1.10;;;0.70;;
13071;SDS011;6602;58.934;11.166;2023-03-11T08:35:05;1.23;;;0.60;;
13071;SDS011;6602;58.934;11.166;2023-03-11T08:40:06;0.97;;;0.70;;
13071;SDS011;6602;58.934;11.166;2023-03-11T08:45:16;0.70;;;0.60;;
13071;SDS011;6602;58.934;11.166;2023-03-11T08:50:17;0.70;;;0.60;;
13071;SDS011;6602;58.934;11.166;2023-03-11T08:55:25;0.60;;;0.60;;
13071;SDS011;6602;58.934;11.166;2023-03-11T09:00:28;0.77;;;0.60;;
13071;SDS011;6602;58.934;11.166;2023-03-11T09:05:30;0.60;;;0.60;;
13071;SDS011;6602;58.934;11.166;2023-03-11T09:10:31;1.13;;;0.70;;
13071;SDS011;6602;58.934;11.166;2023-03-11T09:15:35;1.87;;;0.70;;
13071;SDS011;6602;58.934;11.166;2023-03-11T09:20:50;1.13;;;0.50;;
13071;SDS011;6602;58.934;11.166;2023-03-11T09:25:58;1.63;;;0.70;;
13071;SDS011;6602;58.934;11.166;2023-03-11T09:31:08;1.93;;;0.80;;
13071;SDS011;6602;58.934;11.166;2023-03-11T09:36:13;1.20;;;0.70;;
13071;SDS011;6602;58.934;11.166;2023-03-11T09:41:26;0.40;;;0.40;;
13071;SDS011;6602;58.934;11.166;2023-03-11T09:52:22;0.50;;;0.50;;
13071;SDS011;6602;58.934;11.166;2023-03-11T09:57:49;2.03;;;0.47;;
13071;SDS011;6602;58.934;11.166;2023-03-11T10:03:13;2.10;;;0.50;;
13071;SDS011;6602;58.934;11.166;2023-03-11T10:09:06;1.60;;;0.50;;
13071;SDS011;6602;58.934;11.166;2023-03-11T10:26:14;0.30;;;0.30;;
13071;SDS011;6602;58.934;11.166;2023-03-11T10:31:45;0.40;;;0.40;;
13071;SDS011;6602;58.934;11.166;2023-03-11T10:37:28;0.40;;;0.40;;
13071;SDS011;6602;58.934;11.166;2023-03-11T10:42:46;0.60;;;0.40;;
13071;SDS011;6602;58.934;11.166;2023-03-11T10:48:07;0.70;;;0.50;;
13071;SDS011;6602;58.934;11.166;2023-03-11T10:53:31;0.60;;;0.40;;
13071;SDS011;6602;58.934;11.166;2023-03-11T10:59:05;2.83;;;1.23;;
13071;SDS011;6602;58.934;11.166;2023-03-11T11:04:39;1.13;;;0.60;;
13071;SDS011;6602;58.934;11.166;2023-03-11T11:26:19;0.60;;;0.40;;
13071;SDS011;6602;58.934;11.166;2023-03-11T11:31:45;0.73;;;0.30;;
13071;SDS011;6602;58.934;11.166;2023-03-11T11:37:10;0.30;;;0.30;;
13071;SDS011;6602;58.934;11.166;2023-03-11T11:42:36;2.47;;;0.30;;
13071;SDS011;6602;58.934;11.166;2023-03-11T11:48:18;0.20;;;0.20;;
13071;SDS011;6602;58.934;11.166;2023-03-11T11:53:49;2.30;;;0.30;;
13071;SDS011;6602;58.934;11.166;2023-03-11T11:59:18;1.20;;;0.20;;
13071;SDS011;6602;58.934;11.166;2023-03-11T12:10:11;0.33;;;0.33;;
13071;SDS011;6602;58.934;11.166;2023-03-11T12:15:52;0.30;;;0.20;;
13071;SDS011;6602;58.934;11.166;2023-03-11T12:21:53;2.07;;;0.30;;
13071;SDS011;6602;58.934;11.166;2023-03-11T12:27:46;2.53;;;0.30;;
13071;SDS011;6602;58.934;11.166;2023-03-11T12:33:11;1.30;;;0.40;;
13071;SDS011;6602;58.934;11.166;2023-03-11T12:38:38;0.30;;;0.30;;
13071;SDS011;6602;58.934;11.166;2023-03-11T12:44:04;2.03;;;0.30;;
13071;SDS011;6602;58.934;11.166;2023-03-11T12:49:45;0.70;;;0.20;;
13071;SDS011;6602;58.934;11.166;2023-03-11T13:00:40;0.50;;;0.40;;
13071;SDS011;6602;58.934;11.166;2023-03-11T13:11:56;0.63;;;0.60;;
13071;SDS011;6602;58.934;11.166;2023-03-11T13:17:26;0.70;;;0.63;;
13071;SDS011;6602;58.934;11.166;2023-03-11T13:33:51;1.80;;;0.60;;
13071;SDS011;6602;58.934;11.166;2023-03-11T13:44:46;1.70;;;0.93;;
13071;SDS011;6602;58.934;11.166;2023-03-11T13:50:17;2.70;;;0.90;;
13071;SDS011;6602;58.934;11.166;2023-03-11T13:55:43;1.73;;;0.93;;
13071;SDS011;6602;58.934;11.166;2023-03-11T14:01:10;1.73;;;0.80;;
13071;SDS011;6602;58.934;11.166;2023-03-11T14:06:35;1.63;;;0.70;;
13071;SDS011;6602;58.934;11.166;2023-03-11T14:11:57;2.30;;;0.60;;
13071;SDS011;6602;58.934;11.166;2023-03-11T14:17:22;1.43;;;0.70;;
13071;SDS011;6602;58.934;11.166;2023-03-11T14:22:45;1.47;;;0.90;;
13071;SDS011;6602;58.934;11.166;2023-03-11T14:28:13;1.07;;;0.70;;
13071;SDS011;6602;58.934;11.166;2023-03-11T14:33:37;1.93;;;0.67;;
13071;SDS011;6602;58.934;11.166;2023-03-11T14:38:42;1.50;;;0.70;;
13071;SDS011;6602;58.934;11.166;2023-03-11T14:44:01;0.83;;;0.60;;
13071;SDS011;6602;58.934;11.166;2023-03-11T14:49:21;2.37;;;0.80;;
13071;SDS011;6602;58.934;11.166;2023-03-11T14:54:41;1.77;;;0.47;;
13071;SDS011;6602;58.934;11.166;2023-03-11T15:00:03;1.17;;;0.50;;
13071;SDS011;6602;58.934;11.166;2023-03-11T15:05:47;0.90;;;0.60;;
13071;SDS011;6602;58.934;11.166;2023-03-11T15:11:12;1.13;;;0.60;;
13071;SDS011;6602;58.934;11.166;2023-03-11T15:16:39;0.70;;;0.40;;
13071;SDS011;6602;58.934;11.166;2023-03-11T15:22:01;0.97;;;0.50;;
13071;SDS011;6602;58.934;11.166;2023-03-11T15:27:44;0.97;;;0.40;;
13071;SDS011;6602;58.934;11.166;2023-03-11T15:33:04;1.53;;;0.50;;
13071;SDS011;6602;58.934;11.166;2023-03-11T15:38:39;0.90;;;0.40;;
13071;SDS011;6602;58.934;11.166;2023-03-11T15:43:59;0.83;;;0.50;;
13071;SDS011;6602;58.934;11.166;2023-03-11T15:49:20;1.50;;;0.40;;
13071;SDS011;6602;58.934;11.166;2023-03-11T15:54:40;0.77;;;0.47;;
13071;SDS011;6602;58.934;11.166;2023-03-11T16:00:00;0.30;;;0.30;;
13071;SDS011;6602;58.934;11.166;2023-03-11T16:05:21;0.80;;;0.30;;
13071;SDS011;6602;58.934;11.166;2023-03-11T16:10:42;0.70;;;0.50;;
13071;SDS011;6602;58.934;11.166;2023-03-11T16:16:02;0.80;;;0.60;;
13071;SDS011;6602;58.934;11.166;2023-03-11T16:21:23;0.67;;;0.60;;
13071;SDS011;6602;58.934;11.166;2023-03-11T16:26:49;2.17;;;0.60;;
13071;SDS011;6602;58.934;11.166;2023-03-11T16:32:10;1.87;;;0.67;;
13071;SDS011;6602;58.934;11.166;2023-03-11T16:37:29;1.10;;;0.50;;
13071;SDS011;6602;58.934;11.166;2023-03-11T16:42:49;2.73;;;0.70;;
13071;SDS011;6602;58.934;11.166;2023-03-11T16:48:12;1.30;;;0.90;;
13071;SDS011;6602;58.934;11.166;2023-03-11T16:53:31;0.87;;;0.50;;
13071;SDS011;6602;58.934;11.166;2023-03-11T16:58:51;0.93;;;0.60;;
13071;SDS011;6602;58.934;11.166;2023-03-11T17:04:10;0.70;;;0.43;;
13071;SDS011;6602;58.934;11.166;2023-03-11T17:09:30;0.50;;;0.50;;
13071;SDS011;6602;58.934;11.166;2023-03-11T17:14:51;0.50;;;0.50;;
13071;SDS011;6602;58.934;11.166;2023-03-11T17:20:11;0.63;;;0.50;;
13071;SDS011;6602;58.934;11.166;2023-03-11T17:25:30;1.40;;;0.50;;
13071;SDS011;6602;58.934;11.166;2023-03-11T17:30:50;0.77;;;0.43;;
13071;SDS011;6602;58.934;11.166;2023-03-11T17:36:10;0.30;;;0.30;;
13071;SDS011;6602;58.934;11.166;2023-03-11T17:41:33;0.60;;;0.50;;
13071;SDS011;6602;58.934;11.166;2023-03-11T17:46:52;0.20;;;0.20;;
13071;SDS011;6602;58.934;11.166;2023-03-11T17:52:03;0.50;;;0.40;;
13071;SDS011;6602;58.934;11.166;2023-03-11T17:57:04;0.50;;;0.30;;
13071;SDS011;6602;58.934;11.166;2023-03-11T18:02:23;0.10;;;0.10;;
13071;SDS011;6602;58.934;11.166;2023-03-11T18:07:30;0.40;;;0.27;;
13071;SDS011;6602;58.934;11.166;2023-03-11T18:12:42;1.37;;;0.30;;
13071;SDS011;6602;58.934;11.166;2023-03-11T18:17:59;0.10;;;0.10;;
13071;SDS011;6602;58.934;11.166;2023-03-11T18:23:07;0.20;;;0.20;;
13071;SDS011;6602;58.934;11.166;2023-03-11T18:28:11;0.70;;;0.30;;
13071;SDS011;6602;58.934;11.166;2023-03-11T18:33:20;1.70;;;0.40;;
13071;SDS011;6602;58.934;11.166;2023-03-11T18:38:22;0.83;;;0.43;;
13071;SDS011;6602;58.934;11.166;2023-03-11T18:43:29;1.33;;;0.30;;
13071;SDS011;6602;58.934;11.166;2023-03-11T18:48:42;0.60;;;0.40;;
13071;SDS011;6602;58.934;11.166;2023-03-11T18:53:46;0.70;;;0.40;;
13071;SDS011;6602;58.934;11.166;2023-03-11T18:59:03;2.23;;;0.70;;
13071;SDS011;6602;58.934;11.166;2023-03-11T19:04:08;0.10;;;0.10;;
13071;SDS011;6602;58.934;11.166;2023-03-11T19:09:15;0.50;;;0.27;;
13071;SDS011;6602;58.934;11.166;2023-03-11T19:14:40;0.30;;;0.30;;
13071;SDS011;6602;58.934;11.166;2023-03-11T19:19:46;1.73;;;0.30;;
13071;SDS011;6602;58.934;11.166;2023-03-11T19:24:53;0.30;;;0.30;;
13071;SDS011;6602;58.934;11.166;2023-03-11T19:30:00;0.40;;;0.40;;
13071;SDS011;6602;58.934;11.166;2023-03-11T19:35:01;0.30;;;0.30;;
13071;SDS011;6602;58.934;11.166;2023-03-11T19:40:07;1.70;;;0.40;;
13071;SDS011;6602;58.934;11.166;2023-03-11T19:45:09;0.23;;;0.20;;
13071;SDS011;6602;58.934;11.166;2023-03-11T19:50:16;0.37;;;0.30;;
13071;SDS011;6602;58.934;11.166;2023-03-11T19:55:18;1.10;;;0.27;;
13071;SDS011;6602;58.934;11.166;2023-03-11T20:00:21;0.13;;;0.13;;
13071;SDS011;6602;58.934;11.166;2023-03-11T20:05:27;0.47;;;0.30;;
13071;SDS011;6602;58.934;11.166;2023-03-11T20:10:29;0.20;;;0.20;;
13071;SDS011;6602;58.934;11.166;2023-03-11T20:15:30;0.30;;;0.30;;
13071;SDS011;6602;58.934;11.166;2023-03-11T20:20:31;1.70;;;0.20;;
13071;SDS011;6602;58.934;11.166;2023-03-11T20:25:39;0.37;;;0.20;;
13071;SDS011;6602;58.934;11.166;2023-03-11T20:30:40;3.07;;;0.37;;
13071;SDS011;6602;58.934;11.166;2023-03-11T20:35:42;1.30;;;0.17;;
13071;SDS011;6602;58.934;11.166;2023-03-11T20:40:44;0.30;;;0.27;;
13071;SDS011;6602;58.934;11.166;2023-03-11T20:45:56;2.73;;;0.40;;
13071;SDS011;6602;58.934;11.166;2023-03-11T20:51:02;1.27;;;0.50;;
13071;SDS011;6602;58.934;11.166;2023-03-11T20:56:06;0.93;;;0.40;;
13071;SDS011;6602;58.934;11.166;2023-03-11T21:01:18;1.57;;;0.40;;
13071;SDS011;6602;58.934;11.166;2023-03-11T21:06:39;3.30;;;0.40;;
13071;SDS011;6602;58.934;11.166;2023-03-11T21:11:55;0.30;;;0.23;;
13071;SDS011;6602;58.934;11.166;2023-03-11T21:17:00;1.07;;;0.50;;
13071;SDS011;6602;58.934;11.166;2023-03-11T21:22:04;0.67;;;0.33;;
13071;SDS011;6602;58.934;11.166;2023-03-11T21:27:12;0.57;;;0.47;;
13071;SDS011;6602;58.934;11.166;2023-03-11T21:32:16;0.47;;;0.47;;
13071;SDS011;6602;58.934;11.166;2023-03-11T21:37:21;0.50;;;0.43;;
13071;SDS011;6602;58.934;11.166;2023-03-11T21:42:27;2.37;;;0.27;;
13071;SDS011;6602;58.934;11.166;2023-03-11T21:47:31;0.50;;;0.50;;
13071;SDS011;6602;58.934;11.166;2023-03-11T21:52:34;1.07;;;0.40;;
13071;SDS011;6602;58.934;11.166;2023-03-11T21:57:44;0.43;;;0.43;;
13071;SDS011;6602;58.934;11.166;2023-03-11T22:02:49;0.60;;;0.60;;
13071;SDS011;6602;58.934;11.166;2023-03-11T22:07:50;0.43;;;0.40;;
13071;SDS011;6602;58.934;11.166;2023-03-11T22:12:54;0.63;;;0.47;;
13071;SDS011;6602;58.934;11.166;2023-03-11T22:18:07;0.73;;;0.63;;
13071;SDS011;6602;58.934;11.166;2023-03-11T22:23:11;0.97;;;0.47;;
13071;SDS011;6602;58.934;11.166;2023-03-11T22:28:21;0.60;;;0.40;;
13071;SDS011;6602;58.934;11.166;2023-03-11T22:33:25;1.03;;;0.30;;
13071;SDS011;6602;58.934;11.166;2023-03-11T22:38:30;1.80;;;0.40;;
13071;SDS011;6602;58.934;11.166;2023-03-11T22:43:36;0.33;;;0.33;;
13071;SDS011;6602;58.934;11.166;2023-03-11T22:48:40;1.63;;;0.53;;
13071;SDS011;6602;58.934;11.166;2023-03-11T22:53:47;3.00;;;0.53;;
13071;SDS011;6602;58.934;11.166;2023-03-11T22:58:51;2.33;;;0.50;;
13071;SDS011;6602;58.934;11.166;2023-03-11T23:03:56;0.30;;;0.30;;
13071;SDS011;6602;58.934;11.166;2023-03-11T23:09:05;1.13;;;0.40;;
13071;SDS011;6602;58.934;11.166;2023-03-11T23:14:09;0.40;;;0.27;;
13071;SDS011;6602;58.934;11.166;2023-03-11T23:19:15;0.47;;;0.37;;
13071;SDS011;6602;58.934;11.166;2023-03-11T23:24:19;0.70;;;0.50;;
13071;SDS011;6602;58.934;11.166;2023-03-11T23:29:23;1.40;;;0.60;;
13071;SDS011;6602;58.934;11.166;2023-03-11T23:34:26;0.30;;;0.30;;
13071;SDS011;6602;58.934;11.166;2023-03-11T23:39:27;1.20;;;0.70;;
13071;SDS011;6602;58.934;11.166;2023-03-11T23:44:34;0.30;;;0.30;;
13071;SDS011;6602;58.934;11.166;2023-03-11T23:49:40;0.50;;;0.50;;
13071;SDS011;6602;58.934;11.166;2023-03-11T23:54:44;0.30;;;0.30;;
13071;SDS011;6602;58.934;11.166;2023-03-11T23:59:48;0.60;;;0.40;;
